Grand Terrace, California
Current Conditions -  °F | °C
As of 8:50 PM on Sunday 23 Nov 2014 (Local Time) from KSBD Reporting Station
Broken Clouds Broken Clouds  
Wind Chill: 52°   Ceiling: 15000
Heat Index: 52°   Visibility: 7mi
Dew Point: 18°   Wind: 5mph
Humidity: 26%   Direction: 130°SE
Pressure: 30.17"   Gusts: NA
Location:  34.04°N, 117.3°W
Report Text: KSBD 240450Z 13004KT 7SM BKN150 11/M08 A3017 RMK LAST
Loading
Personal Weather Stations






























Interactive Weather Map New forecast layout! Learn more

10-Day Weather Forecast

Advertisements
Track Severe Weather on mobile